Thorhild, Canada
Current Conditions -  °F | °C
As of 2:03 AM on Friday 31 Oct 2014 (Local Time) from CYED Reporting Station
Scattered Clouds Scattered Clouds  
Wind Chill: 28°   Ceiling: Unl
Heat Index: 37°   Visibility: 9mi
Dew Point: 32°   Wind: 17mph
Humidity: 81%   Direction: 140°SE
Pressure: 29.76"   Gusts: 28mph
Location:  54.15°N, 113.12°W
Report Text: CYED 310803Z AUTO 14015G24KT 9SM SCT014 03/00 A2976
Loading
Personal Weather Stations






























Interactive Weather Map
Tropical Storm Tracking
New forecast layout! Learn more

10-Day Weather Forecast

Advertisements
Track Severe Weather on mobile